EFKT

Kittila Airport

Kittila, Finland
METAR EFKT 230750Z 30002KT 9999 -SHSN FEW004 M23/M26 Q1034
Observed Flight Rules
Feb-23 @ 07:50 UTC (33 minutes ago) Visual Flight Rules
Wind Visibility Clouds Conditions
300° at 2 knots 10,000+ meters
  • Few at 400' AGL
  • Light Snow
Temperatures Readings
Current -23°C / -9°F
Dewpoint -26°C / -15°F
Humidity 77%
Altimeter 30.53" Hg
Pressure 1034 hPa
Elevation 643
METAR EFKT 230750Z 30002KT 9999 -SHSN FEW004 M23/M26 Q1034
Observed Flight Rules
Feb-23 @ 07:50 UTC
(33 minutes ago)
VFR
Wind Visibility
300° at 2 knots 10,000+ meters
Clouds
  • Few at 400' AGL
Conditions
  • Light Snow
Temperature Dewpoint
-23°C / -9°F -26°C / -15°F
Humidity Altimeter Pressure
77% 30.53" Hg 1034 hPa